createdAt,value
2017-09-27T00:00:40.532Z,51.34
2017-09-27T00:01:40.565Z,51.43
2017-09-27T00:02:40.608Z,51.34
2017-09-27T00:03:40.647Z,51.72
2017-09-27T00:04:40.694Z,51.24
2017-09-27T00:05:40.732Z,51.24
2017-09-27T00:06:40.772Z,51.24
2017-09-27T00:07:40.816Z,51.34
2017-09-27T00:08:40.850Z,51.43
2017-09-27T00:09:40.903Z,51.72
2017-09-27T00:10:40.935Z,51.43
2017-09-27T00:11:40.972Z,51.24
2017-09-27T00:12:41.020Z,51.34
2017-09-27T00:13:41.060Z,51.72
2017-09-27T00:14:41.097Z,51.34
2017-09-27T00:15:41.143Z,51.43
2017-09-27T00:16:41.181Z,51.34
2017-09-27T00:17:41.216Z,51.24
2017-09-27T00:18:41.260Z,51.34
2017-09-27T00:19:41.301Z,51.43
2017-09-27T00:20:41.345Z,51.43
2017-09-27T00:21:41.385Z,51.43
2017-09-27T00:22:41.423Z,51.34
2017-09-27T00:23:41.463Z,51.53
2017-09-27T00:24:41.507Z,51.24
2017-09-27T00:25:41.547Z,51.24
2017-09-27T00:26:41.585Z,51.34
2017-09-27T00:27:41.625Z,51.24
2017-09-27T00:28:41.669Z,51.43
2017-09-27T00:29:41.706Z,51.34
2017-09-27T00:30:41.755Z,51.72
2017-09-27T00:31:41.788Z,51.34
2017-09-27T00:32:41.827Z,51.24
2017-09-27T00:33:41.869Z,51.24
2017-09-27T00:34:41.916Z,51.24
2017-09-27T00:35:41.952Z,51.34
2017-09-27T00:36:41.991Z,51.34
2017-09-27T00:37:42.032Z,51.43
2017-09-27T00:38:42.082Z,51.72
2017-09-27T00:39:42.121Z,51.72
2017-09-27T00:40:42.156Z,51.24
2017-09-27T00:41:42.199Z,51.24
2017-09-27T00:42:42.238Z,51.43
2017-09-27T00:43:42.285Z,51.82
2017-09-27T00:44:42.346Z,51.05
2017-09-27T00:45:42.360Z,51.05
2017-09-27T00:46:42.403Z,51.72
2017-09-27T00:47:42.452Z,51.05
2017-09-27T00:48:42.507Z,51.05
2017-09-27T00:49:42.528Z,51.82
2017-09-27T00:50:42.565Z,51.24
2017-09-27T00:51:42.617Z,51.43
2017-09-27T00:52:42.649Z,51.05
2017-09-27T00:53:42.689Z,51.24
2017-09-27T00:54:42.726Z,51.24
2017-09-27T00:55:42.774Z,51.43
2017-09-27T00:56:42.810Z,51.43
2017-09-27T00:57:42.852Z,51.43
2017-09-27T00:58:42.895Z,51.62
2017-09-27T00:59:42.950Z,51.24
2017-09-27T01:00:42.971Z,51.34
2017-09-27T01:01:43.022Z,51.24
2017-09-27T01:02:43.065Z,51.24
2017-09-27T01:03:43.094Z,51.43
2017-09-27T01:04:43.137Z,51.24
2017-09-27T01:05:43.184Z,51.34
2017-09-27T01:06:43.218Z,51.24
2017-09-27T01:07:43.259Z,51.62
2017-09-27T01:08:43.296Z,51.24
2017-09-27T01:09:43.338Z,51.24
2017-09-27T01:10:43.378Z,51.24
2017-09-27T01:11:43.418Z,51.24
2017-09-27T01:12:43.458Z,51.24
2017-09-27T01:13:43.501Z,51.72
2017-09-27T01:14:43.548Z,51.24
2017-09-27T01:15:43.581Z,51.43
2017-09-27T01:16:43.624Z,51.72
2017-09-27T01:17:43.663Z,51.34
2017-09-27T01:18:43.705Z,51.05
2017-09-27T01:19:43.746Z,51.72
2017-09-27T01:20:43.790Z,51.43
2017-09-27T01:21:43.828Z,51.24
2017-09-27T01:22:43.877Z,51.53
2017-09-27T01:23:43.908Z,51.24
2017-09-27T01:24:43.949Z,51.24
2017-09-27T01:25:44.005Z,51.24
2017-09-27T01:26:44.036Z,51.24
2017-09-27T01:27:44.071Z,51.24
2017-09-27T01:28:44.115Z,51.24
2017-09-27T01:29:44.153Z,51.43
2017-09-27T01:30:44.194Z,51.62
2017-09-27T01:31:44.238Z,51.24
2017-09-27T01:32:44.277Z,51.72
2017-09-27T01:33:44.316Z,51.43
2017-09-27T01:34:44.357Z,51.82
2017-09-27T01:35:44.394Z,51.43
2017-09-27T01:36:44.436Z,51.43
2017-09-27T01:37:44.478Z,51.14
2017-09-27T01:38:44.523Z,51.24
2017-09-27T01:39:44.557Z,51.14
2017-09-27T01:40:44.600Z,51.82
2017-09-27T01:41:44.639Z,51.34
2017-09-27T01:42:44.688Z,51.34
2017-09-27T01:43:44.721Z,51.24
2017-09-27T01:44:44.767Z,51.43
2017-09-27T01:45:44.803Z,51.24
2017-09-27T01:46:44.844Z,51.43
2017-09-27T01:47:44.885Z,51.53
2017-09-27T01:48:44.924Z,51.43
2017-09-27T01:49:44.966Z,51.43
2017-09-27T01:50:45.008Z,51.24
2017-09-27T01:51:45.052Z,51.34
2017-09-27T01:52:45.090Z,51.43
2017-09-27T01:53:45.130Z,51.43
2017-09-27T01:54:45.169Z,52.01
2017-09-27T01:55:45.209Z,51.43
2017-09-27T01:56:45.250Z,51.05
2017-09-27T01:57:45.297Z,51.24
2017-09-27T01:58:45.334Z,51.53
2017-09-27T01:59:45.378Z,51.24
2017-09-27T02:00:45.412Z,51.14
2017-09-27T02:01:45.457Z,51.05
2017-09-27T02:02:45.494Z,51.34
2017-09-27T02:03:45.542Z,51.43
2017-09-27T02:04:45.574Z,51.62
2017-09-27T02:05:45.621Z,51.53
2017-09-27T02:06:45.656Z,51.24
2017-09-27T02:07:45.705Z,51.24
2017-09-27T02:08:45.740Z,51.05
2017-09-27T02:09:45.781Z,51.24
2017-09-27T02:10:45.825Z,51.43
2017-09-27T02:11:45.864Z,51.43
2017-09-27T02:12:45.904Z,51.24
2017-09-27T02:13:45.944Z,51.43
2017-09-27T02:14:45.986Z,51.43
2017-09-27T02:15:46.025Z,52.01
2017-09-27T02:16:46.066Z,51.34
2017-09-27T02:17:46.106Z,51.43
2017-09-27T02:18:46.146Z,51.53
2017-09-27T02:19:46.191Z,51.24
2017-09-27T02:20:46.225Z,51.43
2017-09-27T02:21:46.270Z,51.43
2017-09-27T02:22:46.309Z,51.43
2017-09-27T02:23:46.351Z,51.14
2017-09-27T02:24:46.387Z,51.24
2017-09-27T02:25:46.434Z,51.34
2017-09-27T02:26:46.472Z,51.62
2017-09-27T02:27:46.517Z,51.24
2017-09-27T02:28:46.555Z,51.43
2017-09-27T02:29:46.597Z,51.14
2017-09-27T02:30:46.632Z,51.34
2017-09-27T02:31:46.678Z,51.05
2017-09-27T02:32:46.719Z,51.24
2017-09-27T02:33:46.756Z,51.43
2017-09-27T02:34:46.801Z,51.05
2017-09-27T02:35:46.841Z,51.34
2017-09-27T02:36:46.879Z,51.43
2017-09-27T02:37:46.923Z,51.34
2017-09-27T02:38:46.958Z,51.43
2017-09-27T02:39:46.999Z,51.02
2017-09-27T02:40:47.041Z,51.34
2017-09-27T02:41:47.082Z,51.34
2017-09-27T02:42:47.126Z,51.43
2017-09-27T02:43:47.169Z,51.34
2017-09-27T02:44:47.205Z,52.01
2017-09-27T02:45:47.247Z,51.41
2017-09-27T02:46:47.286Z,51.41
2017-09-27T02:47:47.325Z,51.41
2017-09-27T02:48:47.364Z,51.43
2017-09-27T02:49:47.405Z,52.01
2017-09-27T02:50:47.447Z,51.43
2017-09-27T02:51:47.504Z,51.21
2017-09-27T02:52:47.526Z,51.31
2017-09-27T02:53:47.567Z,52.01
2017-09-27T02:54:47.612Z,51.24
2017-09-27T02:55:47.647Z,51.41
2017-09-27T02:56:47.695Z,51.41
2017-09-27T02:57:47.730Z,51.43
2017-09-27T02:58:47.770Z,51.41
2017-09-27T02:59:47.814Z,51.41
2017-09-27T03:00:47.850Z,51.41
2017-09-27T03:01:47.893Z,51.89
2017-09-27T03:02:47.932Z,51.21
2017-09-27T03:03:47.972Z,51.31
2017-09-27T03:04:48.012Z,51.31
2017-09-27T03:05:48.057Z,51.43
2017-09-27T03:06:48.094Z,51.31
2017-09-27T03:07:48.137Z,52.18
2017-09-27T03:08:48.175Z,51.31
2017-09-27T03:09:48.219Z,51.31
2017-09-27T03:10:48.257Z,51.92
2017-09-27T03:11:48.298Z,51.31
2017-09-27T03:12:48.339Z,51.34
2017-09-27T03:13:48.379Z,51.12
2017-09-27T03:14:48.420Z,51.34
2017-09-27T03:15:48.461Z,51.43
2017-09-27T03:16:48.505Z,51.21
2017-09-27T03:17:48.540Z,51.31
2017-09-27T03:18:48.587Z,51.72
2017-09-27T03:19:48.653Z,51.43
2017-09-27T03:20:48.663Z,51.24
2017-09-27T03:21:48.703Z,51.14
2017-09-27T03:22:48.746Z,51.24
2017-09-27T03:23:48.790Z,51.31
2017-09-27T03:24:48.831Z,51.31
2017-09-27T03:25:48.871Z,51.21
2017-09-27T03:26:48.905Z,51.31
2017-09-27T03:27:48.946Z,51.31
2017-09-27T03:28:48.985Z,51.41
2017-09-27T03:29:49.027Z,51.34
2017-09-27T03:30:49.070Z,51.21
2017-09-27T03:31:49.108Z,51.31
2017-09-27T03:32:49.148Z,51.21
2017-09-27T03:33:49.189Z,51.31
2017-09-27T03:34:49.235Z,51.70
2017-09-27T03:35:49.268Z,51.12
2017-09-27T03:36:49.309Z,52.08
2017-09-27T03:37:51.131Z,51.70
2017-09-27T03:38:49.429Z,51.12
2017-09-27T03:39:49.435Z,51.02
2017-09-27T03:40:49.476Z,51.70
2017-09-27T03:41:49.521Z,51.41
2017-09-27T03:42:49.556Z,52.18
2017-09-27T03:43:49.594Z,51.02
2017-09-27T03:44:49.639Z,51.02
2017-09-27T03:45:49.685Z,51.02
2017-09-27T03:46:49.716Z,51.50
2017-09-27T03:47:49.758Z,51.70
2017-09-27T03:48:49.796Z,51.60
2017-09-27T03:49:49.840Z,51.02
2017-09-27T03:50:49.879Z,51.70
2017-09-27T03:51:49.919Z,52.18
2017-09-27T03:52:49.969Z,51.02
2017-09-27T03:53:50.007Z,51.98
2017-09-27T03:54:50.042Z,51.79
2017-09-27T03:55:50.086Z,51.41
2017-09-27T03:56:50.133Z,51.31
2017-09-27T03:57:50.168Z,51.12
2017-09-27T03:58:50.204Z,51.02
2017-09-27T03:59:50.242Z,51.31
2017-09-27T04:00:50.289Z,51.31
2017-09-27T04:01:50.324Z,51.31
2017-09-27T04:02:50.370Z,51.98
2017-09-27T04:03:50.406Z,51.31
2017-09-27T04:04:50.451Z,51.41
2017-09-27T04:05:50.486Z,51.41
2017-09-27T04:06:50.531Z,51.70
2017-09-27T04:07:50.568Z,51.98
2017-09-27T04:08:50.614Z,51.98
2017-09-27T04:09:50.652Z,51.60
2017-09-27T04:10:50.689Z,51.89
2017-09-27T04:11:50.732Z,51.62
2017-09-27T04:12:50.775Z,51.60
2017-09-27T04:13:50.811Z,51.50
2017-09-27T04:14:50.880Z,51.79
2017-09-27T04:15:50.898Z,51.02
2017-09-27T04:16:50.935Z,51.12
2017-09-27T04:17:50.974Z,51.62
2017-09-27T04:18:51.018Z,51.72
2017-09-27T04:19:51.061Z,51.12
2017-09-27T04:20:51.096Z,51.89
2017-09-27T04:21:51.135Z,51.89
2017-09-27T04:22:51.181Z,51.21
2017-09-27T04:23:51.225Z,51.43
2017-09-27T04:24:51.263Z,51.21
2017-09-27T04:25:52.521Z,51.34
2017-09-27T04:26:51.342Z,51.24
2017-09-27T04:27:51.386Z,51.82
2017-09-27T04:28:51.422Z,51.92
2017-09-27T04:29:51.462Z,51.62
2017-09-27T04:30:51.502Z,51.82
2017-09-27T04:31:51.546Z,51.53
2017-09-27T04:32:51.595Z,51.53
2017-09-27T04:33:51.629Z,51.43
2017-09-27T04:34:51.668Z,51.79
2017-09-27T04:35:51.715Z,51.43
2017-09-27T04:36:51.755Z,51.53
2017-09-27T04:37:51.790Z,51.92
2017-09-27T04:38:51.833Z,51.43
2017-09-27T04:39:51.871Z,51.43
2017-09-27T04:40:51.912Z,51.82
2017-09-27T04:41:51.952Z,52.11
2017-09-27T04:42:51.999Z,51.92
2017-09-27T04:43:52.035Z,51.82
2017-09-27T04:44:52.079Z,51.53
2017-09-27T04:45:52.117Z,51.53
2017-09-27T04:46:52.158Z,51.53
2017-09-27T04:47:52.198Z,51.43
2017-09-27T04:48:57.328Z,51.43
2017-09-27T04:49:52.279Z,52.01
2017-09-27T04:50:52.321Z,51.89
2017-09-27T04:51:52.372Z,52.18
2017-09-27T04:52:52.409Z,51.89
2017-09-27T04:53:52.450Z,51.89
2017-09-27T04:54:52.485Z,51.89
2017-09-27T04:55:52.527Z,51.98
2017-09-27T04:56:52.567Z,51.89
2017-09-27T04:57:52.610Z,51.98
2017-09-27T04:58:52.648Z,52.18
2017-09-27T04:59:52.739Z,51.89
2017-09-27T05:00:52.731Z,51.98
2017-09-27T05:01:52.771Z,52.08
2017-09-27T05:02:52.837Z,52.56
2017-09-27T05:03:52.851Z,52.47
2017-09-27T05:04:52.894Z,52.34
2017-09-27T05:05:52.934Z,52.37
2017-09-27T05:06:52.974Z,52.34
2017-09-27T05:07:53.018Z,52.47
2017-09-27T05:08:53.057Z,52.47
2017-09-27T05:09:53.095Z,52.37
2017-09-27T05:10:53.137Z,52.37
2017-09-27T05:11:53.179Z,52.47
2017-09-27T05:12:53.215Z,51.98
2017-09-27T05:13:53.257Z,52.63
2017-09-27T05:14:53.299Z,52.63
2017-09-27T05:15:53.341Z,51.86
2017-09-27T05:16:53.380Z,52.44
2017-09-27T05:17:53.421Z,52.44
2017-09-27T05:18:53.461Z,52.54
2017-09-27T05:19:53.502Z,52.54
2017-09-27T05:20:53.541Z,52.34
2017-09-27T05:21:53.583Z,52.34
2017-09-27T05:22:53.624Z,52.34
2017-09-27T05:23:53.688Z,52.15
2017-09-27T05:24:53.703Z,52.34
2017-09-27T05:25:53.744Z,52.34
2017-09-27T05:26:53.786Z,52.54
2017-09-27T05:27:53.828Z,52.73
2017-09-27T05:28:53.867Z,52.44
2017-09-27T05:29:54.047Z,52.54
2017-09-27T05:30:53.947Z,52.73
2017-09-27T05:31:54.013Z,52.54
2017-09-27T05:32:54.054Z,52.63
2017-09-27T05:33:54.068Z,52.63
2017-09-27T05:34:54.109Z,52.66
2017-09-27T05:35:54.154Z,52.54
2017-09-27T05:36:54.198Z,52.54
2017-09-27T05:37:54.232Z,52.44
2017-09-27T05:38:54.272Z,52.73
2017-09-27T05:39:54.321Z,52.73
2017-09-27T05:40:54.360Z,52.63
2017-09-27T05:41:54.396Z,52.75
2017-09-27T05:42:54.445Z,52.54
2017-09-27T05:43:54.474Z,52.37
2017-09-27T05:44:54.526Z,52.27
2017-09-27T05:45:54.568Z,52.75
2017-09-27T05:46:54.617Z,52.56
2017-09-27T05:47:54.648Z,52.54
2017-09-27T05:48:54.685Z,52.75
2017-09-27T05:49:54.720Z,52.47
2017-09-27T05:50:54.796Z,52.47
2017-09-27T05:51:54.810Z,52.56
2017-09-27T05:52:54.893Z,52.56
2017-09-27T05:53:54.903Z,52.56
2017-09-27T05:54:54.939Z,52.56
2017-09-27T05:55:54.984Z,52.66
2017-09-27T05:56:55.936Z,52.75
2017-09-27T05:57:55.051Z,52.66
2017-09-27T05:58:55.090Z,52.56
2017-09-27T05:59:55.144Z,52.75
2017-09-27T06:00:55.173Z,52.95
2017-09-27T06:01:55.213Z,52.66
2017-09-27T06:02:55.258Z,52.85
2017-09-27T06:03:55.296Z,52.56
2017-09-27T06:04:55.354Z,52.85
2017-09-27T06:05:55.394Z,53.05
2017-09-27T06:06:55.434Z,52.78
2017-09-27T06:07:55.466Z,52.85
2017-09-27T06:08:55.505Z,54.32
2017-09-27T06:09:55.638Z,54.03
2017-09-27T06:10:55.635Z,53.94
2017-09-27T06:11:55.714Z,53.55
2017-09-27T06:12:55.775Z,53.65
2017-09-27T06:13:55.733Z,53.36
2017-09-27T06:14:55.826Z,53.55
2017-09-27T06:15:55.807Z,53.55
2017-09-27T06:16:55.829Z,53.36
2017-09-27T06:17:55.879Z,53.27
2017-09-27T06:18:55.945Z,53.45
2017-09-27T06:19:55.955Z,53.55
2017-09-27T06:20:56.044Z,53.29
2017-09-27T06:21:56.045Z,53.58
2017-09-27T06:22:56.091Z,53.39
2017-09-27T06:23:56.127Z,53.77
2017-09-27T06:24:56.226Z,53.48
2017-09-27T06:25:56.245Z,53.39
2017-09-27T06:26:56.346Z,53.67
2017-09-27T06:27:56.296Z,53.77
2017-09-27T06:28:57.959Z,53.77
2017-09-27T06:29:56.380Z,53.87
2017-09-27T06:30:56.502Z,53.67
2017-09-27T06:31:56.469Z,53.00
2017-09-27T06:32:57.208Z,53.41
2017-09-27T06:33:56.542Z,53.80
2017-09-27T06:34:57.131Z,53.13
2017-09-27T06:35:56.742Z,53.89
2017-09-27T06:36:56.709Z,53.70
2017-09-27T06:37:56.747Z,53.80
2017-09-27T06:38:56.904Z,53.22
2017-09-27T06:39:56.918Z,53.41
2017-09-27T06:40:56.849Z,53.51
2017-09-27T06:41:56.887Z,53.51
2017-09-27T06:42:56.928Z,52.73
2017-09-27T06:43:57.112Z,53.41
2017-09-27T06:44:58.225Z,53.41
2017-09-27T06:45:57.050Z,53.70
2017-09-27T06:46:57.249Z,53.80
2017-09-27T06:47:57.138Z,53.22
2017-09-27T06:48:57.179Z,53.31
2017-09-27T06:49:57.226Z,53.51
2017-09-27T06:50:57.301Z,53.51
2017-09-27T06:51:57.353Z,53.51
2017-09-27T06:52:58.326Z,53.03
2017-09-27T06:53:57.392Z,53.13
2017-09-27T06:54:57.429Z,53.31
2017-09-27T06:55:57.480Z,53.03
2017-09-27T06:57:01.010Z,52.93
2017-09-27T06:58:00.661Z,52.64
2017-09-27T06:58:57.601Z,53.03
2017-09-27T06:59:57.640Z,53.03
2017-09-27T07:00:57.688Z,52.73
2017-09-27T07:01:59.422Z,53.05
2017-09-27T07:02:57.843Z,52.57
2017-09-27T07:03:57.825Z,53.05
2017-09-27T07:04:57.995Z,52.86
2017-09-27T07:05:57.930Z,52.86
2017-09-27T07:06:58.033Z,53.13
2017-09-27T07:07:59.715Z,52.95
2017-09-27T07:08:58.092Z,53.05
2017-09-27T07:09:58.272Z,53.15
2017-09-27T07:10:58.257Z,52.86
2017-09-27T07:11:58.191Z,52.86
2017-09-27T07:12:58.400Z,52.95
2017-09-27T07:13:58.279Z,52.95
2017-09-27T07:14:58.281Z,53.53
2017-09-27T07:15:58.319Z,53.25
2017-09-27T07:16:58.383Z,53.25
2017-09-27T07:17:58.537Z,53.25
2017-09-27T07:18:58.548Z,53.44
2017-09-27T07:19:58.556Z,53.44
2017-09-27T07:20:58.536Z,53.53
2017-09-27T07:21:58.586Z,53.34
2017-09-27T07:22:59.855Z,53.15
2017-09-27T07:23:58.659Z,53.44
2017-09-27T07:24:58.705Z,53.44
2017-09-27T07:25:58.769Z,53.15
2017-09-27T07:26:58.794Z,53.25
2017-09-27T07:27:58.828Z,53.44
2017-09-27T07:28:58.933Z,53.34
2017-09-27T07:29:58.942Z,53.73
2017-09-27T07:30:59.022Z,53.25
2017-09-27T07:31:59.003Z,53.05
2017-09-27T07:32:59.045Z,53.25
2017-09-27T07:33:59.297Z,53.25
2017-09-27T07:34:59.122Z,53.34
2017-09-27T07:35:59.186Z,53.25
2017-09-27T07:36:59.246Z,53.95
2017-09-27T07:37:59.320Z,53.44
2017-09-27T07:38:59.309Z,52.95
2017-09-27T07:39:59.391Z,52.95
2017-09-27T07:40:59.543Z,53.95
2017-09-27T07:41:59.477Z,53.15
2017-09-27T07:42:59.805Z,53.27
2017-09-27T07:43:59.686Z,53.44
2017-09-27T07:44:59.727Z,53.66
2017-09-27T07:46:02.423Z,53.56
2017-09-27T07:46:59.640Z,53.56
2017-09-27T07:47:59.705Z,53.56
2017-09-27T07:49:01.942Z,52.79
2017-09-27T07:50:02.667Z,52.89
2017-09-27T07:50:59.818Z,53.66
2017-09-27T07:51:59.865Z,53.56
2017-09-27T07:53:02.528Z,52.98
2017-09-27T07:53:59.948Z,52.69
2017-09-27T07:55:00.030Z,52.89
2017-09-27T07:56:00.073Z,53.08
2017-09-27T07:57:00.306Z,52.69
2017-09-27T07:58:00.218Z,52.89
2017-09-27T07:59:00.199Z,52.31
2017-09-27T08:00:00.197Z,52.40
2017-09-27T08:01:00.405Z,52.40
2017-09-27T08:02:00.280Z,52.50
2017-09-27T08:03:00.323Z,52.50
2017-09-27T08:04:00.408Z,52.50
2017-09-27T08:05:00.411Z,52.50
2017-09-27T08:06:00.480Z,52.79
2017-09-27T08:07:00.501Z,52.50
2017-09-27T08:08:01.601Z,52.69
2017-09-27T08:09:00.588Z,52.59
2017-09-27T08:10:00.639Z,52.59
2017-09-27T08:11:00.758Z,52.79
2017-09-27T08:12:00.716Z,52.69
2017-09-27T08:13:00.755Z,52.59
2017-09-27T08:14:04.353Z,52.69
2017-09-27T08:15:00.844Z,52.59
2017-09-27T08:16:00.968Z,52.50
2017-09-27T08:17:00.928Z,52.50
2017-09-27T08:18:00.967Z,52.69
2017-09-27T08:19:01.004Z,52.79
2017-09-27T08:20:01.047Z,52.89
2017-09-27T08:21:01.090Z,53.08
2017-09-27T08:22:01.171Z,52.79
2017-09-27T08:23:01.220Z,52.69
2017-09-27T08:24:01.228Z,52.98
2017-09-27T08:25:02.087Z,52.69
2017-09-27T08:26:01.852Z,52.50
2017-09-27T08:27:01.354Z,52.50
2017-09-27T08:28:01.406Z,52.50
2017-09-27T08:29:01.441Z,52.11
2017-09-27T08:30:01.490Z,52.50
2017-09-27T08:31:02.872Z,52.40
2017-09-27T08:32:01.920Z,52.50
2017-09-27T08:33:01.605Z,52.59
2017-09-27T08:34:01.650Z,52.50
2017-09-27T08:35:02.220Z,52.50
2017-09-27T08:36:01.745Z,52.59
2017-09-27T08:37:01.892Z,52.40
2017-09-27T08:38:01.857Z,52.31
2017-09-27T08:39:01.871Z,52.59
2017-09-27T08:40:01.999Z,52.50
2017-09-27T08:41:01.990Z,52.21
2017-09-27T08:42:02.066Z,52.40
2017-09-27T08:43:02.302Z,52.40
2017-09-27T08:44:02.126Z,52.59
2017-09-27T08:45:02.444Z,52.40
2017-09-27T08:46:02.182Z,52.59
2017-09-27T08:47:02.205Z,52.59
2017-09-27T08:48:02.246Z,52.50
2017-09-27T08:49:02.304Z,52.11
2017-09-27T08:50:02.430Z,52.50
2017-09-27T08:51:02.385Z,52.31
2017-09-27T08:52:03.228Z,52.31
2017-09-27T08:53:02.465Z,52.40
2017-09-27T08:54:02.512Z,52.50
2017-09-27T08:55:02.549Z,52.69
2017-09-27T08:56:02.587Z,52.50
2017-09-27T08:57:02.731Z,52.69
2017-09-27T08:58:02.703Z,52.69
2017-09-27T08:59:02.718Z,52.79
2017-09-27T09:00:05.013Z,52.50
2017-09-27T09:01:03.272Z,52.79
2017-09-27T09:02:02.900Z,52.79
2017-09-27T09:03:02.918Z,52.31
2017-09-27T09:04:02.939Z,52.21
2017-09-27T09:05:02.976Z,52.31
2017-09-27T09:06:03.018Z,52.79
2017-09-27T09:07:03.057Z,52.69
2017-09-27T09:08:03.124Z,52.79
2017-09-27T09:09:03.162Z,52.31
2017-09-27T09:10:03.189Z,52.89
2017-09-27T09:11:03.262Z,52.40
2017-09-27T09:12:03.275Z,52.40
2017-09-27T09:13:05.521Z,52.89
2017-09-27T09:14:03.429Z,52.40
2017-09-27T09:15:03.408Z,52.40
2017-09-27T09:16:03.516Z,52.79
2017-09-27T09:17:03.812Z,52.69
2017-09-27T09:18:03.532Z,52.69
2017-09-27T09:19:03.632Z,52.40
2017-09-27T09:20:06.474Z,52.40
2017-09-27T09:21:04.878Z,52.40
2017-09-27T09:22:03.702Z,52.69
2017-09-27T09:23:03.975Z,52.79
2017-09-27T09:24:03.781Z,52.69
2017-09-27T09:25:03.829Z,52.50
2017-09-27T09:26:03.865Z,52.40
2017-09-27T09:27:03.917Z,52.50
2017-09-27T09:28:03.985Z,52.50
2017-09-27T09:29:04.959Z,52.40
2017-09-27T09:30:04.076Z,52.50
2017-09-27T09:31:04.085Z,52.50
2017-09-27T09:32:04.176Z,52.50
2017-09-27T09:33:04.301Z,52.21
2017-09-27T09:34:05.431Z,52.40
2017-09-27T09:35:04.257Z,52.50
2017-09-27T09:36:04.296Z,52.31
2017-09-27T09:37:04.570Z,52.69
2017-09-27T09:38:04.385Z,52.40
2017-09-27T09:39:14.180Z,52.40
2017-09-27T09:40:05.618Z,52.50
2017-09-27T09:41:04.871Z,52.40
2017-09-27T09:42:04.551Z,52.50
2017-09-27T09:43:04.608Z,52.40
2017-09-27T09:44:04.652Z,52.40
2017-09-27T09:45:07.398Z,52.69
2017-09-27T09:46:04.778Z,52.31
2017-09-27T09:47:04.768Z,52.89
2017-09-27T09:48:04.809Z,52.59
2017-09-27T09:49:04.851Z,52.69
2017-09-27T09:50:04.897Z,52.59
2017-09-27T09:51:06.406Z,52.79
2017-09-27T09:52:04.988Z,52.33
2017-09-27T09:53:05.029Z,52.69
2017-09-27T09:54:05.075Z,52.98
2017-09-27T09:55:05.116Z,52.79
2017-09-27T09:56:05.186Z,52.62
2017-09-27T09:57:05.217Z,53.11
2017-09-27T09:58:05.242Z,53.11
2017-09-27T09:59:05.288Z,52.59
2017-09-27T10:00:05.325Z,53.01
2017-09-27T10:01:05.375Z,53.01
2017-09-27T10:02:05.413Z,52.91
2017-09-27T10:03:05.479Z,52.72
2017-09-27T10:04:05.498Z,52.81
2017-09-27T10:05:05.562Z,52.72
2017-09-27T10:06:05.599Z,53.01
2017-09-27T10:07:05.629Z,53.01
2017-09-27T10:08:05.671Z,53.69
2017-09-27T10:09:05.754Z,52.72
2017-09-27T10:10:05.760Z,53.59
2017-09-27T10:11:05.810Z,53.66
2017-09-27T10:12:07.405Z,53.59
2017-09-27T10:13:05.897Z,53.39
2017-09-27T10:14:05.933Z,53.49
2017-09-27T10:15:05.978Z,53.59
2017-09-27T10:16:06.024Z,53.59
2017-09-27T10:17:06.067Z,53.49
2017-09-27T10:18:06.099Z,53.30
2017-09-27T10:19:06.148Z,53.59
2017-09-27T10:20:06.189Z,53.39
2017-09-27T10:21:06.230Z,53.69
2017-09-27T10:22:09.277Z,53.30
2017-09-27T10:23:06.345Z,53.11
2017-09-27T10:24:06.355Z,53.59
2017-09-27T10:25:06.398Z,53.69
2017-09-27T10:26:06.439Z,53.59
2017-09-27T10:27:06.497Z,53.11
2017-09-27T10:28:06.679Z,53.30
2017-09-27T10:29:06.627Z,53.49
2017-09-27T10:30:06.623Z,53.39
2017-09-27T10:31:06.666Z,53.49
2017-09-27T10:32:06.715Z,53.39
2017-09-27T10:33:06.742Z,53.30
2017-09-27T10:34:06.834Z,53.17
2017-09-27T10:35:06.835Z,53.37
2017-09-27T10:36:06.879Z,53.17
2017-09-27T10:37:07.016Z,53.59
2017-09-27T10:38:06.985Z,53.17
2017-09-27T10:39:07.006Z,53.17
2017-09-27T10:40:07.056Z,53.27
2017-09-27T10:41:07.125Z,53.17
2017-09-27T10:42:07.125Z,53.27
2017-09-27T10:43:07.183Z,53.47
2017-09-27T10:44:07.216Z,53.47
2017-09-27T10:45:07.250Z,53.37
2017-09-27T10:46:07.296Z,53.27
2017-09-27T10:47:07.346Z,53.37
2017-09-27T10:48:07.434Z,53.47
2017-09-27T10:49:07.437Z,53.47
2017-09-27T10:50:07.469Z,53.56
2017-09-27T10:51:07.507Z,53.27
2017-09-27T10:52:08.463Z,53.27
2017-09-27T10:53:13.724Z,53.08
2017-09-27T10:54:07.637Z,53.75
2017-09-27T10:55:07.678Z,53.47
2017-09-27T10:56:07.724Z,52.98
2017-09-27T10:57:07.761Z,53.27
2017-09-27T10:58:07.811Z,53.56
2017-09-27T10:59:08.264Z,53.17
2017-09-27T11:00:08.469Z,53.37
2017-09-27T11:01:08.466Z,53.17
2017-09-27T11:02:41.004Z,54.05
2017-09-27T11:03:08.297Z,53.75
2017-09-27T11:04:08.733Z,53.75
2017-09-27T11:05:08.458Z,53.85
2017-09-27T11:06:08.338Z,53.75
2017-09-27T11:07:08.184Z,53.56
2017-09-27T11:08:08.260Z,53.66
2017-09-27T11:09:08.333Z,53.75
2017-09-27T11:10:08.320Z,53.56
2017-09-27T11:11:08.372Z,53.75
2017-09-27T11:12:08.402Z,53.47
2017-09-27T11:13:08.439Z,53.27
2017-09-27T11:14:08.491Z,53.95
2017-09-27T11:15:08.526Z,54.05
2017-09-27T11:16:08.572Z,54.05
2017-09-27T11:17:08.624Z,53.47
2017-09-27T11:18:08.652Z,54.24
2017-09-27T11:19:09.120Z,54.24
2017-09-27T11:20:08.737Z,54.05
2017-09-27T11:21:08.786Z,54.05
2017-09-27T11:22:09.385Z,54.14
2017-09-27T11:23:08.888Z,54.14
2017-09-27T11:24:08.934Z,54.05
2017-09-27T11:25:11.810Z,54.05
2017-09-27T11:26:08.995Z,54.24
2017-09-27T11:27:09.038Z,53.95
2017-09-27T11:28:09.080Z,54.24
2017-09-27T11:29:09.124Z,54.17
2017-09-27T11:30:09.163Z,54.33
2017-09-27T11:31:09.213Z,54.36
2017-09-27T11:32:09.252Z,53.69
2017-09-27T11:33:09.315Z,53.69
2017-09-27T11:34:09.332Z,54.17
2017-09-27T11:35:09.380Z,53.59
2017-09-27T11:36:09.437Z,53.49
2017-09-27T11:37:09.508Z,53.49
2017-09-27T11:38:09.817Z,53.78
2017-09-27T11:39:09.551Z,53.88
2017-09-27T11:40:09.619Z,53.78
2017-09-27T11:41:09.632Z,54.27
2017-09-27T11:42:09.678Z,53.97
2017-09-27T11:43:09.887Z,54.36
2017-09-27T11:44:09.766Z,54.17
2017-09-27T11:45:10.223Z,54.27
2017-09-27T11:46:09.854Z,54.27
2017-09-27T11:47:09.895Z,54.17
2017-09-27T11:48:09.939Z,54.07
2017-09-27T11:49:09.977Z,54.36
2017-09-27T11:50:10.049Z,54.07
2017-09-27T11:51:10.067Z,53.88
2017-09-27T11:52:10.116Z,53.78
2017-09-27T11:53:10.152Z,54.27
2017-09-27T11:54:10.198Z,53.88
2017-09-27T11:55:10.254Z,53.69
2017-09-27T11:56:10.304Z,53.78
2017-09-27T11:57:10.318Z,53.88
2017-09-27T11:58:10.362Z,53.97
2017-09-27T11:59:10.404Z,53.78
2017-09-27T12:00:12.964Z,53.59
2017-09-27T12:01:11.652Z,53.30
2017-09-27T12:02:10.536Z,53.30
2017-09-27T12:03:10.577Z,53.30
2017-09-27T12:04:10.625Z,53.49
2017-09-27T12:05:10.672Z,53.69
2017-09-27T12:06:11.369Z,53.49
2017-09-27T12:07:10.794Z,53.30
2017-09-27T12:08:10.789Z,53.39
2017-09-27T12:09:10.833Z,53.39
2017-09-27T12:10:10.895Z,53.78
2017-09-27T12:11:10.921Z,53.78
2017-09-27T12:12:10.973Z,53.69
2017-09-27T12:13:11.003Z,53.59
2017-09-27T12:14:11.106Z,53.78
2017-09-27T12:15:11.118Z,53.78
2017-09-27T12:16:11.134Z,53.97
2017-09-27T12:17:11.184Z,53.69
2017-09-27T12:18:11.233Z,53.59
2017-09-27T12:19:11.274Z,53.88
2017-09-27T12:20:11.302Z,53.88
2017-09-27T12:21:11.353Z,53.69
2017-09-27T12:22:15.421Z,53.39
2017-09-27T12:23:13.298Z,53.30
2017-09-27T12:24:13.191Z,53.30
2017-09-27T12:25:11.796Z,53.69
2017-09-27T12:26:11.668Z,53.30
2017-09-27T12:27:11.644Z,53.30
2017-09-27T12:28:11.649Z,53.20
2017-09-27T12:29:11.871Z,53.59
2017-09-27T12:30:12.331Z,53.20
2017-09-27T12:31:11.852Z,53.49
2017-09-27T12:32:11.918Z,53.49
2017-09-27T12:33:11.933Z,53.49
2017-09-27T12:34:12.069Z,53.01
2017-09-27T12:35:12.351Z,53.11
2017-09-27T12:36:12.435Z,53.30
2017-09-27T12:37:12.583Z,53.49
2017-09-27T12:38:12.079Z,53.78
2017-09-27T12:39:12.130Z,53.39
2017-09-27T12:40:12.170Z,53.78
2017-09-27T12:41:12.262Z,53.59
2017-09-27T12:42:12.270Z,54.07
2017-09-27T12:43:12.396Z,53.59
2017-09-27T12:44:12.344Z,53.39
2017-09-27T12:45:12.484Z,53.78
2017-09-27T12:46:12.425Z,53.59
2017-09-27T12:47:12.475Z,53.97
2017-09-27T12:48:12.515Z,53.78
2017-09-27T12:49:12.562Z,53.49
2017-09-27T12:50:12.602Z,53.69
2017-09-27T12:51:12.648Z,53.20
2017-09-27T12:52:12.690Z,53.69
2017-09-27T12:53:12.721Z,53.59